Time;durP1;ratioP1;P1;durP2;ratioP2;P2;SDS_P1;SDS_P2;PMS_P1;PMS_P2;Temp;Humidity;BMP_temperature;BMP_pressure;BME280_temperature;BME280_humidity;BME280_pressure;Samples;Min_cycle;Max_cycle;Signal;HPM_P1;HPM_P2
2022/12/23 00:00:38;;;;;;;273.27;44.10;;;6.50;99.90;;;;;;5094160;28;20042;-43
2022/12/23 00:03:04;;;;;;;233.43;41.97;;;6.40;99.90;;;;;;5095830;27;20778;-45
2022/12/23 00:05:33;;;;;;;274.65;43.75;;;8.20;99.90;;;;;;5096744;27;20047;-45
2022/12/23 00:07:59;;;;;;;345.35;45.38;;;6.50;99.90;;;;;;5096208;28;20543;-43
2022/12/23 00:10:25;;;;;;;316.33;43.80;;;6.40;99.90;;;;;;5096382;27;20043;-45
2022/12/23 00:15:35;;;;;;;223.45;44.25;;;6.60;99.90;;;;;;5095907;28;20051;-46
2022/12/23 00:18:00;;;;;;;284.83;51.80;;;6.50;99.90;;;;;;5095968;28;20044;-43
2022/12/23 00:20:26;;;;;;;242.00;47.88;;;6.60;99.90;;;;;;5096139;27;20226;-45
2022/12/23 00:23:04;;;;;;;118.85;38.35;;;6.50;99.90;;;;;;5095932;28;20043;-44
2022/12/23 00:25:40;;;;;;;126.07;37.60;;;8.00;99.90;;;;;;5096736;27;20096;-43
2022/12/23 00:28:16;;;;;;;134.02;38.97;;;6.60;99.90;;;;;;5097535;28;20039;-44
2022/12/23 00:31:03;;;;;;;122.15;36.38;;;6.60;99.90;;;;;;5096356;27;20039;-44
2022/12/23 00:33:31;;;;;;;121.28;36.75;;;6.40;99.90;;;;;;5095665;28;20055;-44
2022/12/23 00:35:58;;;;;;;88.63;32.50;;;7.30;99.90;;;;;;5096196;27;20051;-46
2022/12/23 00:43:59;;;;;;;85.55;32.08;;;6.50;99.90;;;;;;5096862;27;20198;-44
2022/12/23 00:46:25;;;;;;;101.35;34.03;;;7.20;99.90;;;;;;5096686;27;20352;-43
2022/12/23 00:51:35;;;;;;;116.30;36.65;;;7.60;99.90;;;;;;5094992;27;20043;-46
2022/12/23 00:54:01;;;;;;;171.93;40.03;;;6.40;99.90;;;;;;5095963;27;20388;-47
2022/12/23 00:56:27;;;;;;;131.80;37.92;;;6.40;99.90;;;;;;5094346;27;20496;-45
2022/12/23 00:58:52;;;;;;;104.03;36.38;;;7.10;99.90;;;;;;5094439;27;20044;-46
2022/12/23 01:06:47;;;;;;;112.63;34.92;;;6.50;99.90;;;;;;5094414;27;20104;-44
2022/12/23 01:09:13;;;;;;;106.18;33.85;;;6.30;99.90;;;;;;5094578;27;20043;-46
2022/12/23 01:11:39;;;;;;;159.55;38.88;;;7.50;99.90;;;;;;5095450;27;20036;-47
2022/12/23 01:14:04;;;;;;;182.05;40.75;;;7.50;99.90;;;;;;5094484;27;20060;-45
2022/12/23 01:16:30;;;;;;;122.78;36.78;;;6.40;99.90;;;;;;5095753;27;20492;-47
2022/12/23 01:18:57;;;;;;;121.57;37.35;;;7.90;99.90;;;;;;5092578;27;20256;-47
2022/12/23 01:21:23;;;;;;;135.77;35.92;;;8.00;99.90;;;;;;5094249;27;20294;-44
2022/12/23 01:23:48;;;;;;;124.70;37.28;;;7.20;99.90;;;;;;5093123;27;20031;-43
2022/12/23 01:26:14;;;;;;;100.15;33.90;;;7.50;99.90;;;;;;5095496;27;20187;-44
2022/12/23 01:28:40;;;;;;;109.93;36.58;;;6.80;99.90;;;;;;5094162;28;20543;-43
2022/12/23 01:31:09;;;;;;;279.23;45.97;;;8.10;99.90;;;;;;5093983;28;20044;-43
2022/12/23 01:33:34;;;;;;;154.13;38.75;;;6.40;99.90;;;;;;5093369;28;20048;-44
2022/12/23 01:36:03;;;;;;;148.07;36.45;;;6.60;99.90;;;;;;5094510;28;20036;-48
2022/12/23 01:38:29;;;;;;;119.63;37.03;;;6.40;99.90;;;;;;5096180;28;20047;-43
2022/12/23 01:40:55;;;;;;;117.57;36.00;;;6.40;99.90;;;;;;5096001;27;20051;-48
2022/12/23 01:43:21;;;;;;;118.22;36.35;;;7.80;99.90;;;;;;5096200;27;20043;-48
2022/12/23 01:45:47;;;;;;;115.75;36.15;;;7.30;99.90;;;;;;5094330;27;20043;-45
2022/12/23 01:48:24;;;;;;;159.57;39.13;;;6.70;99.90;;;;;;5096453;27;20035;-45
2022/12/23 01:51:13;;;;;;;148.90;38.22;;;6.60;99.90;;;;;;5095070;27;20054;-43
2022/12/23 01:53:46;;;;;;;122.53;37.60;;;6.40;99.90;;;;;;5094849;27;20400;-44
2022/12/23 01:56:22;;;;;;;186.45;41.78;;;6.40;99.90;;;;;;5094029;27;20054;-44
2022/12/23 01:59:05;;;;;;;158.52;39.40;;;6.90;99.90;;;;;;5094608;27;20047;-43
2022/12/23 02:04:20;;;;;;;89.18;30.55;;;8.40;99.90;;;;;;5126232;27;20051;-44
2022/12/23 02:09:35;;;;;;;264.80;44.45;;;8.30;99.90;;;;;;5093800;28;20052;-45
2022/12/23 02:12:23;;;;;;;164.63;39.85;;;6.40;99.90;;;;;;5094423;27;20043;-45
2022/12/23 02:18:18;;;;;;;209.73;40.08;;;6.40;99.90;;;;;;5093864;27;20882;-44
2022/12/23 02:21:11;;;;;;;137.50;36.15;;;6.40;99.90;;;;;;5093739;27;20036;-43
2022/12/23 02:24:24;;;;;;;113.93;34.72;;;6.40;99.90;;;;;;5092743;27;20046;-46
2022/12/23 02:27:09;;;;;;;;;;;6.50;99.90;;;;;;5093321;28;20054;-44
2022/12/23 02:30:02;;;;;;;142.30;35.20;;;6.40;99.90;;;;;;5093124;27;19977;-45
2022/12/23 02:32:33;;;;;;;133.77;34.88;;;8.20;99.90;;;;;;5092870;28;20047;-45
2022/12/23 02:35:54;;;;;;;237.32;41.80;;;6.40;99.90;;;;;;5092905;27;20050;-46
2022/12/23 02:38:25;;;;;;;270.25;41.92;;;6.50;99.90;;;;;;5069191;28;20044;-48
2022/12/23 02:41:09;;;;;;;153.30;38.78;;;7.60;99.90;;;;;;5092324;28;20039;-44
2022/12/23 02:43:48;;;;;;;126.63;35.42;;;6.50;99.90;;;;;;5092742;28;20504;-45
2022/12/23 02:46:26;;;;;;;139.27;35.50;;;7.90;99.90;;;;;;5093659;28;20032;-46
2022/12/23 02:49:10;;;;;;;198.20;37.40;;;6.50;99.90;;;;;;5092786;28;20043;-47
2022/12/23 02:51:45;;;;;;;143.80;37.03;;;7.40;99.90;;;;;;5093401;28;20118;-44
2022/12/23 02:54:15;;;;;;;130.32;35.95;;;7.80;99.90;;;;;;5092564;28;20118;-45
2022/12/23 02:56:46;;;;;;;183.13;38.13;;;6.40;99.90;;;;;;5098182;27;20059;-47
2022/12/23 02:59:19;;;;;;;144.82;37.25;;;6.50;99.90;;;;;;5100925;27;20047;-45
2022/12/23 03:01:46;;;;;;;173.23;37.85;;;6.50;99.90;;;;;;5100456;27;20126;-46
2022/12/23 03:04:12;;;;;;;213.70;40.38;;;6.50;99.90;;;;;;5100775;27;20666;-45
2022/12/23 03:06:43;;;;;;;153.43;39.17;;;6.50;99.90;;;;;;5100784;27;20048;-44
2022/12/23 03:09:21;;;;;;;177.77;39.67;;;7.70;99.90;;;;;;5101758;27;20458;-44
2022/12/23 03:12:16;;;;;;;135.10;37.03;;;6.50;99.90;;;;;;5101162;27;20086;-44
2022/12/23 03:15:17;;;;;;;167.80;38.10;;;6.40;99.90;;;;;;5100373;27;20079;-45
2022/12/23 03:18:13;;;;;;;123.60;35.55;;;6.30;99.90;;;;;;5101184;27;20044;-45
2022/12/23 03:20:55;;;;;;;172.25;36.72;;;6.30;99.90;;;;;;5100681;27;20027;-45
2022/12/23 03:23:33;;;;;;;145.75;35.22;;;6.30;99.90;;;;;;5100596;27;20032;-44
2022/12/23 03:26:21;;;;;;;123.82;33.35;;;8.60;99.90;;;;;;5099354;27;20063;-45
2022/12/23 03:29:10;;;;;;;159.38;35.90;;;6.30;99.90;;;;;;5099963;27;20040;-45
2022/12/23 03:31:37;;;;;;;184.60;39.75;;;6.30;99.90;;;;;;5099687;27;20039;-43
2022/12/23 03:34:09;;;;;;;211.23;37.78;;;6.30;99.90;;;;;;5099437;27;20054;-46
2022/12/23 03:36:46;;;;;;;128.50;35.00;;;6.30;99.90;;;;;;5099576;27;20126;-49
2022/12/23 03:39:18;;;;;;;147.95;35.20;;;6.40;99.90;;;;;;5099307;27;20140;-46
2022/12/23 03:41:49;;;;;;;132.55;35.53;;;7.80;99.90;;;;;;5100575;27;20071;-45
2022/12/23 03:44:20;;;;;;;133.30;35.70;;;7.30;99.90;;;;;;5099101;27;20112;-45
2022/12/23 03:46:59;;;;;;;226.68;40.10;;;6.90;99.90;;;;;;5099056;27;20092;-44
2022/12/23 03:49:36;;;;;;;182.10;36.00;;;7.10;99.90;;;;;;5101710;27;20108;-44
2022/12/23 03:52:08;;;;;;;117.88;32.72;;;6.30;99.90;;;;;;5098575;27;20070;-44
2022/12/23 03:54:50;;;;;;;183.68;35.58;;;6.70;99.90;;;;;;5097673;27;20044;-44
2022/12/23 03:57:18;;;;;;;136.82;34.22;;;7.60;99.90;;;;;;5099989;27;20086;-44
2022/12/23 03:59:49;;;;;;;151.48;37.03;;;6.30;99.90;;;;;;5099077;27;20512;-43
2022/12/23 04:02:32;;;;;;;145.73;35.60;;;6.20;99.90;;;;;;5100084;27;20035;-45
2022/12/23 04:05:16;;;;;;;136.57;32.55;;;6.10;99.90;;;;;;5099063;27;20027;-43
2022/12/23 04:07:55;;;;;;;178.43;36.55;;;6.20;99.90;;;;;;5096329;27;20353;-44
2022/12/23 04:10:22;;;;;;;133.05;35.28;;;7.50;99.90;;;;;;5095883;27;20043;-44
2022/12/23 04:12:48;;;;;;;115.13;31.27;;;6.50;99.90;;;;;;5097550;27;20043;-44
2022/12/23 04:15:19;;;;;;;266.27;36.78;;;6.20;99.90;;;;;;5096594;27;20038;-47
2022/12/23 04:17:45;;;;;;;231.13;35.67;;;6.10;99.90;;;;;;5097857;27;20135;-45
2022/12/23 04:20:11;;;;;;;97.25;27.40;;;8.10;99.90;;;;;;5098784;27;20775;-44
2022/12/23 04:22:38;;;;;;;144.02;31.38;;;6.00;99.90;;;;;;5098531;27;20048;-44
2022/12/23 04:25:05;;;;;;;121.75;31.05;;;6.00;99.90;;;;;;5095999;27;20091;-45
2022/12/23 04:27:30;;;;;;;112.97;30.95;;;6.10;99.90;;;;;;5096261;28;20118;-44
2022/12/23 04:29:56;;;;;;;139.68;31.63;;;6.00;99.90;;;;;;5096299;28;20538;-43
2022/12/23 04:32:22;;;;;;;124.35;31.58;;;6.80;99.90;;;;;;5097252;27;20040;-46
2022/12/23 04:34:47;;;;;;;105.70;28.80;;;6.00;99.90;;;;;;5097334;27;20047;-44
2022/12/23 04:37:13;;;;;;;177.55;31.35;;;7.80;99.90;;;;;;5096655;27;20114;-44
2022/12/23 04:39:39;;;;;;;163.80;29.20;;;6.00;99.90;;;;;;5095979;28;20175;-44
2022/12/23 04:42:04;;;;;;;138.27;30.40;;;6.10;99.90;;;;;;5096704;27;20096;-44
2022/12/23 04:44:30;;;;;;;137.20;30.10;;;6.10;99.90;;;;;;5096134;28;20039;-43
2022/12/23 04:46:56;;;;;;;248.98;34.13;;;6.00;99.90;;;;;;5096137;27;20650;-43
2022/12/23 04:49:22;;;;;;;298.67;37.22;;;6.20;99.90;;;;;;5096183;27;20741;-43
2022/12/23 04:51:48;;;;;;;287.83;39.58;;;6.80;99.90;;;;;;5093140;28;20039;-45
2022/12/23 04:54:13;;;;;;;342.95;38.30;;;8.10;99.90;;;;;;5095410;27;20051;-44
2022/12/23 04:56:39;;;;;;;136.27;30.60;;;6.10;99.90;;;;;;5095307;27;20052;-43
2022/12/23 04:59:05;;;;;;;226.85;35.15;;;6.10;99.90;;;;;;5094688;27;20575;-43
2022/12/23 05:01:30;;;;;;;295.30;37.88;;;6.10;99.90;;;;;;5094664;28;20050;-43
2022/12/23 05:03:56;;;;;;;284.30;37.30;;;6.10;99.90;;;;;;5095076;28;20453;-45
2022/12/23 05:06:22;;;;;;;387.27;41.38;;;8.00;99.90;;;;;;5095121;27;20053;-44
2022/12/23 05:08:48;;;;;;;280.88;36.88;;;6.10;99.90;;;;;;5095268;27;20096;-44
2022/12/23 05:11:14;;;;;;;268.80;36.28;;;7.40;99.90;;;;;;5094702;27;20032;-45
2022/12/23 05:13:39;;;;;;;293.60;37.08;;;6.00;99.90;;;;;;5095982;28;20047;-43
2022/12/23 05:16:05;;;;;;;255.52;35.97;;;6.60;99.90;;;;;;5095440;27;20332;-43
2022/12/23 05:18:31;;;;;;;202.35;35.55;;;6.00;99.90;;;;;;5095443;27;20035;-48
2022/12/23 05:20:57;;;;;;;290.42;38.00;;;5.90;99.90;;;;;;5094741;27;20041;-43
2022/12/23 05:23:23;;;;;;;189.82;34.53;;;6.10;99.90;;;;;;5094304;27;20039;-45
2022/12/23 05:25:51;;;;;;;130.10;31.13;;;6.10;99.90;;;;;;5095130;27;20028;-44
2022/12/23 05:28:17;;;;;;;183.48;33.13;;;6.00;99.90;;;;;;5094669;27;20795;-46
2022/12/23 05:30:43;;;;;;;108.55;27.20;;;5.80;99.90;;;;;;5095431;27;20047;-45
2022/12/23 05:33:09;;;;;;;204.93;32.90;;;5.80;99.90;;;;;;5092286;27;20034;-43
2022/12/23 05:35:34;;;;;;;502.63;41.85;;;6.00;99.90;;;;;;5094806;27;20035;-44
2022/12/23 05:38:02;;;;;;;127.07;26.73;;;5.90;99.90;;;;;;5095059;27;20055;-44
2022/12/23 05:40:28;;;;;;;345.13;37.80;;;7.20;99.90;;;;;;5095162;27;20051;-44
2022/12/23 05:42:54;;;;;;;411.40;40.75;;;6.10;99.90;;;;;;5096542;27;20036;-47
2022/12/23 05:45:19;;;;;;;276.92;37.63;;;6.70;99.90;;;;;;5096366;28;20051;-43
2022/12/23 05:47:45;;;;;;;271.23;36.85;;;5.90;99.90;;;;;;5094908;27;20043;-44
2022/12/23 05:50:11;;;;;;;262.20;36.50;;;6.00;99.90;;;;;;5094847;27;20036;-43
2022/12/23 05:52:37;;;;;;;273.65;39.05;;;6.00;99.90;;;;;;5095456;27;20146;-43
2022/12/23 05:55:03;;;;;;;261.30;37.75;;;6.00;99.90;;;;;;5095696;27;20043;-45
2022/12/23 05:57:30;;;;;;;211.40;35.10;;;6.10;99.90;;;;;;5096084;27;20497;-44
2022/12/23 05:59:57;;;;;;;242.50;35.90;;;5.90;99.90;;;;;;5094925;27;20458;-46
2022/12/23 06:02:23;;;;;;;183.02;32.97;;;7.80;99.90;;;;;;5094649;28;20036;-44
2022/12/23 06:04:49;;;;;;;329.50;36.80;;;6.00;99.90;;;;;;5094664;28;20655;-43
2022/12/23 06:07:15;;;;;;;423.98;39.88;;;5.70;99.90;;;;;;5092064;28;20072;-43
2022/12/23 06:09:41;;;;;;;345.73;36.00;;;5.60;99.90;;;;;;5094784;27;20829;-45
2022/12/23 06:12:07;;;;;;;328.85;33.83;;;5.60;99.90;;;;;;5094314;27;20043;-43
2022/12/23 06:14:33;;;;;;;803.85;43.65;;;;;;;;;;5076049;28;20428;-45
2022/12/23 06:16:59;;;;;;;891.58;43.75;;;5.50;99.90;;;;;;5093675;27;20054;-45
2022/12/23 06:19:25;;;;;;;1093.07;44.53;;;5.30;99.90;;;;;;5093693;28;20027;-47
2022/12/23 06:21:52;;;;;;;954.35;39.72;;;;;;;;;;5093488;28;20050;-45
2022/12/23 06:24:17;;;;;;;880.65;36.90;;;5.10;99.90;;;;;;5093416;27;20042;-44
2022/12/23 06:26:43;;;;;;;746.80;28.83;;;5.10;99.90;;;;;;5092683;28;20044;-44
2022/12/23 06:29:10;;;;;;;867.92;37.28;;;4.90;99.90;;;;;;5093524;28;20208;-43
2022/12/23 06:31:36;;;;;;;683.50;29.73;;;;;;;;;;5092901;27;20043;-43
2022/12/23 06:34:01;;;;;;;632.85;27.80;;;4.90;99.90;;;;;;5092231;28;20035;-47
2022/12/23 06:36:28;;;;;;;701.15;33.35;;;;;;;;;;5091646;28;20047;-43
2022/12/23 06:38:54;;;;;;;615.78;31.63;;;;;;;;;;5093346;28;20059;-42
2022/12/23 06:41:19;;;;;;;618.85;33.78;;;5.10;99.90;;;;;;5093094;27;20093;-44
2022/12/23 06:43:45;;;;;;;695.65;36.42;;;5.00;99.90;;;;;;5094102;28;20039;-45
2022/12/23 06:46:11;;;;;;;716.25;40.95;;;5.00;99.90;;;;;;5092718;28;20122;-44
2022/12/23 06:48:36;;;;;;;497.98;34.08;;;7.10;99.90;;;;;;5093817;28;20047;-44
2022/12/23 06:51:02;;;;;;;544.33;35.30;;;5.20;99.90;;;;;;5092446;28;20035;-46
2022/12/23 06:53:28;;;;;;;580.90;37.58;;;5.10;99.90;;;;;;5094801;28;20522;-47
2022/12/23 06:56:00;;;;;;;581.08;39.35;;;5.30;99.90;;;;;;5092311;28;20124;-43
2022/12/23 06:58:26;;;;;;;588.95;40.20;;;5.30;99.90;;;;;;5093979;28;20133;-44
2022/12/23 07:00:52;;;;;;;467.13;37.38;;;5.40;99.90;;;;;;5094572;28;20395;-43
2022/12/23 07:03:18;;;;;;;412.20;35.55;;;;;;;;;;5095207;28;20039;-43
2022/12/23 07:05:48;;;;;;;354.70;34.80;;;5.40;99.90;;;;;;5093086;28;20035;-44
2022/12/23 07:08:14;;;;;;;384.90;35.28;;;5.40;99.90;;;;;;5092977;28;20583;-46
2022/12/23 07:10:39;;;;;;;352.20;35.70;;;5.40;99.90;;;;;;5094190;28;20047;-44
2022/12/23 07:13:05;;;;;;;152.23;26.83;;;5.50;99.90;;;;;;5095375;28;20038;-44
2022/12/23 07:15:31;;;;;;;101.88;26.02;;;5.50;99.90;;;;;;5094205;27;20047;-43
2022/12/23 07:17:57;;;;;;;161.35;28.52;;;;;;;;;;5092706;28;20043;-43
2022/12/23 07:20:23;;;;;;;187.32;30.63;;;5.50;99.90;;;;;;5093191;28;20042;-45
2022/12/23 07:22:49;;;;;;;166.45;30.23;;;5.60;99.90;;;;;;5092582;28;20035;-46
2022/12/23 07:25:15;;;;;;;182.18;30.92;;;5.70;99.90;;;;;;5094767;28;20039;-43
2022/12/23 07:27:42;;;;;;;238.60;32.05;;;5.80;99.90;;;;;;5094491;28;20054;-45
2022/12/23 07:30:08;;;;;;;140.40;29.67;;;;;;;;;;5092597;28;20074;-49
2022/12/23 07:32:34;;;;;;;144.93;28.48;;;5.70;99.90;;;;;;5092637;28;20055;-46
2022/12/23 07:34:59;;;;;;;225.25;34.92;;;5.70;99.90;;;;;;5092775;28;20040;-43
2022/12/23 07:37:25;;;;;;;203.73;30.75;;;5.70;99.90;;;;;;5093480;28;20043;-45
2022/12/23 07:39:51;;;;;;;155.63;29.15;;;5.80;99.90;;;;;;5092340;28;20195;-43
2022/12/23 07:42:17;;;;;;;122.03;26.48;;;5.70;99.90;;;;;;5093471;28;20036;-45
2022/12/23 07:44:42;;;;;;;116.00;28.15;;;5.80;99.90;;;;;;5097272;27;20060;-47
2022/12/23 07:47:08;;;;;;;196.63;31.92;;;5.80;99.90;;;;;;5094831;27;20588;-44
2022/12/23 07:49:34;;;;;;;110.88;27.35;;;5.80;99.90;;;;;;5096930;27;20043;-44
2022/12/23 07:52:00;;;;;;;121.95;27.25;;;5.70;99.90;;;;;;5096106;27;20040;-45
2022/12/23 07:54:25;;;;;;;192.85;30.45;;;5.80;99.90;;;;;;5097093;27;20191;-44
2022/12/23 07:56:51;;;;;;;215.00;33.53;;;5.70;99.90;;;;;;5096281;27;20048;-44
2022/12/23 07:59:17;;;;;;;186.52;32.22;;;5.70;99.90;;;;;;5095907;27;20052;-44
2022/12/23 08:01:43;;;;;;;119.15;27.30;;;5.80;99.90;;;;;;5095588;27;20847;-44
2022/12/23 08:04:08;;;;;;;124.63;28.30;;;5.70;99.90;;;;;;5094899;27;20522;-46
2022/12/23 08:06:35;;;;;;;140.48;30.15;;;5.80;99.90;;;;;;5096265;27;20666;-44
2022/12/23 08:09:02;;;;;;;126.20;27.20;;;5.70;99.90;;;;;;5096289;27;20527;-43
2022/12/23 08:11:27;;;;;;;88.00;24.17;;;5.90;99.90;;;;;;5094566;27;20050;-43
2022/12/23 08:13:53;;;;;;;99.18;25.42;;;5.90;99.90;;;;;;5096680;27;20047;-44
2022/12/23 08:16:19;;;;;;;124.18;26.45;;;5.90;99.90;;;;;;5096257;28;20038;-46
2022/12/23 08:18:44;;;;;;;82.88;23.23;;;6.00;99.90;;;;;;5096232;27;20038;-43
2022/12/23 08:21:17;;;;;;;162.02;28.25;;;5.90;99.90;;;;;;5097669;27;20074;-44
2022/12/23 08:23:45;;;;;;;92.63;24.45;;;6.00;99.90;;;;;;5096424;27;20035;-45
2022/12/23 08:26:20;;;;;;;101.55;24.63;;;6.00;99.90;;;;;;5096281;27;20579;-47
2022/12/23 08:28:46;;;;;;;83.00;24.17;;;6.00;99.90;;;;;;5096076;28;20100;-44
2022/12/23 08:31:18;;;;;;;87.90;23.25;;;6.00;99.90;;;;;;5096270;27;20039;-43
2022/12/23 08:33:47;;;;;;;145.88;26.70;;;6.10;99.90;;;;;;5096521;27;20470;-44
2022/12/23 08:36:15;;;;;;;89.45;22.88;;;6.10;99.90;;;;;;5096491;27;20042;-44
2022/12/23 08:38:42;;;;;;;70.93;21.45;;;6.10;99.90;;;;;;5096790;27;20496;-43
2022/12/23 08:41:12;;;;;;;98.40;23.83;;;6.00;99.90;;;;;;5096344;27;20502;-45
2022/12/23 08:43:39;;;;;;;85.13;21.00;;;6.10;99.90;;;;;;5095687;27;20663;-45
2022/12/23 08:46:05;;;;;;;104.78;23.60;;;7.20;99.90;;;;;;5095966;28;20400;-44
2022/12/23 08:48:32;;;;;;;102.65;22.45;;;6.10;99.90;;;;;;5095795;28;20044;-46
2022/12/23 08:51:03;;;;;;;106.60;23.38;;;6.00;99.90;;;;;;5094536;27;20063;-45
2022/12/23 08:53:28;;;;;;;119.68;24.35;;;6.60;99.90;;;;;;5094199;27;20126;-47
2022/12/23 08:55:54;;;;;;;111.88;25.45;;;6.20;99.90;;;;;;5094392;27;20069;-46
2022/12/23 08:58:21;;;;;;;160.27;27.95;;;8.30;99.90;;;;;;5095094;28;20051;-47
2022/12/23 09:00:47;;;;;;;140.80;28.77;;;6.10;99.90;;;;;;5093819;28;20108;-49
2022/12/23 09:03:13;;;;;;;205.10;31.60;;;6.10;99.90;;;;;;5094136;28;20047;-47
2022/12/23 09:05:40;;;;;;;170.10;28.73;;;7.60;99.90;;;;;;5094250;28;20051;-47
2022/12/23 09:08:05;;;;;;;197.38;29.15;;;6.20;99.90;;;;;;5095190;27;20062;-46
2022/12/23 09:10:31;;;;;;;150.27;28.17;;;6.10;99.90;;;;;;5094645;27;20036;-45
2022/12/23 09:12:57;;;;;;;135.88;27.20;;;6.40;99.90;;;;;;5093635;28;20549;-44
2022/12/23 09:15:22;;;;;;;148.82;28.40;;;6.30;99.90;;;;;;5094938;27;20044;-45
2022/12/23 09:17:48;;;;;;;209.30;29.48;;;6.30;99.90;;;;;;5094828;28;20042;-46
2022/12/23 09:20:14;;;;;;;147.57;27.10;;;6.30;99.90;;;;;;5094748;28;20060;-46
2022/12/23 09:22:40;;;;;;;134.70;26.50;;;6.60;99.90;;;;;;5093906;28;20036;-44
2022/12/23 09:25:06;;;;;;;177.05;30.42;;;6.30;99.90;;;;;;5094799;27;20035;-46
2022/12/23 09:27:31;;;;;;;148.95;28.27;;;6.60;99.90;;;;;;5093835;27;20086;-45
2022/12/23 09:29:57;;;;;;;131.23;27.33;;;7.60;99.90;;;;;;5094065;27;20126;-47
2022/12/23 09:32:23;;;;;;;148.70;28.00;;;6.40;99.90;;;;;;5093897;27;20046;-44
2022/12/23 09:34:48;;;;;;;155.82;29.05;;;6.30;99.90;;;;;;5094791;28;20032;-46
2022/12/23 09:37:15;;;;;;;129.38;26.20;;;7.40;99.90;;;;;;5095887;27;20089;-48
2022/12/23 09:39:42;;;;;;;191.80;29.65;;;6.50;99.90;;;;;;5095389;27;20043;-44
2022/12/23 09:42:31;;;;;;;376.45;37.65;;;6.50;99.90;;;;;;5094872;27;20381;-49
2022/12/23 09:45:21;;;;;;;186.68;29.02;;;6.50;99.90;;;;;;5095085;27;20357;-45
2022/12/23 09:47:48;;;;;;;146.95;26.35;;;6.60;99.90;;;;;;5094915;27;20039;-46
2022/12/23 09:50:25;;;;;;;153.23;27.00;;;6.80;99.90;;;;;;5093801;27;20043;-45
2022/12/23 09:53:10;;;;;;;310.15;32.25;;;6.70;99.90;;;;;;5094304;27;20039;-45
2022/12/23 09:55:41;;;;;;;237.57;29.95;;;6.60;99.90;;;;;;5095113;27;20399;-47
2022/12/23 09:58:21;;;;;;;260.33;30.58;;;6.60;99.90;;;;;;5094985;28;20039;-47
2022/12/23 10:01:00;;;;;;;143.20;26.45;;;8.60;99.90;;;;;;5095025;28;20047;-46
2022/12/23 10:03:43;;;;;;;178.05;27.38;;;6.60;99.90;;;;;;5094428;27;20047;-46
2022/12/23 10:06:17;;;;;;;104.72;23.63;;;7.00;99.90;;;;;;5092901;27;20171;-45
2022/12/23 10:08:53;;;;;;;110.53;24.30;;;6.70;99.90;;;;;;5092722;27;20047;-47
2022/12/23 10:11:30;;;;;;;86.43;21.00;;;6.70;99.90;;;;;;5093004;27;20506;-47
2022/12/23 10:14:14;;;;;;;73.63;20.00;;;6.70;99.90;;;;;;5094771;27;20565;-47
2022/12/23 10:16:46;;;;;;;104.57;22.83;;;6.70;99.90;;;;;;5093369;28;20035;-44
2022/12/23 10:19:18;;;;;;;;;;;6.70;99.90;;;;;;5094270;27;20059;-49
2022/12/23 10:21:49;;;;;;;85.25;20.90;;;6.70;99.90;;;;;;5094810;27;19924;-45
2022/12/23 10:24:23;;;;;;;71.53;19.63;;;6.90;99.90;;;;;;5093879;28;20181;-45
2022/12/23 10:26:56;;;;;;;74.97;21.17;;;6.70;99.90;;;;;;5092996;28;20081;-44
2022/12/23 10:29:30;;;;;;;101.72;23.02;;;6.80;99.90;;;;;;5094058;27;21250;-46
2022/12/23 10:31:59;;;;;;;63.70;19.65;;;6.80;99.90;;;;;;5092668;28;20042;-45
2022/12/23 10:34:47;;;;;;;60.50;19.70;;;6.80;99.90;;;;;;5092968;27;20048;-45
2022/12/23 10:37:25;;;;;;;93.88;21.45;;;7.00;99.90;;;;;;5073692;27;20047;-45
2022/12/23 10:40:18;;;;;;;62.67;19.38;;;8.10;99.90;;;;;;5093438;27;20040;-44
2022/12/23 10:43:17;;;;;;;67.80;19.48;;;7.00;99.90;;;;;;5092467;27;20039;-44
2022/12/23 10:46:20;;;;;;;65.53;18.98;;;7.00;99.90;;;;;;5093572;28;20036;-45
2022/12/23 10:49:19;;;;;;;78.50;20.58;;;6.90;99.90;;;;;;5093660;28;20400;-45
2022/12/23 10:51:52;;;;;;;80.82;20.48;;;6.90;99.90;;;;;;5093147;27;20042;-45
2022/12/23 10:54:32;;;;;;;69.28;20.80;;;7.00;99.90;;;;;;5093699;28;20090;-44
2022/12/23 10:56:59;;;;;;;74.68;21.77;;;6.90;99.90;;;;;;5091370;28;20059;-45
2022/12/23 10:59:32;;;;;;;80.90;23.33;;;7.00;99.90;;;;;;5092512;28;20438;-45
2022/12/23 11:02:11;;;;;;;72.55;23.38;;;7.00;99.90;;;;;;5093366;28;20040;-46
2022/12/23 11:04:46;;;;;;;63.13;21.90;;;7.00;99.90;;;;;;5094476;28;20448;-45
2022/12/23 11:07:20;;;;;;;66.47;23.05;;;8.70;99.90;;;;;;5094271;28;20100;-44
2022/12/23 11:09:53;;;;;;;81.38;21.67;;;6.80;99.90;;;;;;5092244;28;20031;-46
2022/12/23 11:12:23;;;;;;;72.60;20.02;;;7.50;99.90;;;;;;5093555;28;20040;-44
2022/12/23 11:14:58;;;;;;;63.47;20.08;;;6.80;99.90;;;;;;5094207;28;20040;-45
2022/12/23 11:17:26;;;;;;;65.80;20.73;;;6.90;99.90;;;;;;5095659;27;20050;-45
2022/12/23 11:20:17;;;;;;;72.47;21.55;;;8.80;99.90;;;;;;5096977;27;20032;-45
2022/12/23 11:22:51;;;;;;;61.65;20.20;;;7.10;99.90;;;;;;5098977;27;20122;-45
2022/12/23 11:25:31;;;;;;;60.05;19.73;;;7.00;99.90;;;;;;5097509;27;20039;-46
2022/12/23 11:28:18;;;;;;;60.15;18.83;;;7.00;99.90;;;;;;5096836;27;20334;-44
2022/12/23 11:31:00;;;;;;;64.90;19.40;;;9.00;99.90;;;;;;5096415;28;20047;-44
2022/12/23 11:33:33;;;;;;;69.20;20.05;;;7.00;99.90;;;;;;5095733;27;20039;-48
2022/12/23 11:36:11;;;;;;;53.83;18.13;;;8.80;99.90;;;;;;5095965;27;20104;-46
2022/12/23 11:38:47;;;;;;;55.28;18.50;;;7.00;99.90;;;;;;5095652;27;20134;-48
2022/12/23 11:41:22;;;;;;;45.55;17.25;;;6.90;99.90;;;;;;5095571;27;20485;-47
2022/12/23 11:44:17;;;;;;;56.30;18.15;;;7.00;99.90;;;;;;5095635;27;20047;-45
2022/12/23 11:46:42;;;;;;;60.85;18.70;;;8.70;99.90;;;;;;5095942;27;20048;-46
2022/12/23 11:49:20;;;;;;;48.50;17.15;;;7.80;99.90;;;;;;5095825;27;20050;-45
2022/12/23 11:52:08;;;;;;;49.30;18.63;;;6.90;99.90;;;;;;5095761;27;20055;-46
2022/12/23 11:54:35;;;;;;;44.08;17.10;;;7.00;99.90;;;;;;5095350;28;21031;-46
2022/12/23 11:57:04;;;;;;;57.65;19.40;;;5.40;99.90;;;;;;5095170;27;20048;-45
2022/12/23 11:59:30;;;;;;;56.35;18.27;;;7.10;99.90;;;;;;5095634;28;20051;-44
2022/12/23 12:01:59;;;;;;;60.05;18.88;;;6.90;99.90;;;;;;5094757;27;20423;-44
2022/12/23 12:04:28;;;;;;;50.00;17.80;;;7.10;99.90;;;;;;5095191;27;20154;-47
2022/12/23 12:06:54;;;;;;;63.88;19.67;;;8.10;99.90;;;;;;5094542;27;20050;-47
2022/12/23 12:09:20;;;;;;;49.67;17.33;;;6.90;99.90;;;;;;5095281;27;20035;-45
2022/12/23 12:12:26;;;;;;;50.08;17.42;;;7.00;99.90;;;;;;5097492;27;20051;-46
2022/12/23 12:14:55;;;;;;;50.53;17.85;;;6.90;99.90;;;;;;5073297;28;20042;-46
2022/12/23 12:17:31;;;;;;;48.60;18.35;;;7.10;99.90;;;;;;5095881;27;20151;-44
2022/12/23 12:20:09;;;;;;;46.97;17.23;;;7.10;99.90;;;;;;5097235;27;20040;-45
2022/12/23 12:22:45;;;;;;;43.83;16.58;;;7.00;99.90;;;;;;5095682;27;20047;-44
2022/12/23 12:25:20;;;;;;;56.30;17.88;;;8.10;99.90;;;;;;5094037;27;20039;-46
2022/12/23 12:28:04;;;;;;;44.65;17.33;;;9.00;99.90;;;;;;5096450;28;20410;-44
2022/12/23 12:30:36;;;;;;;40.28;16.13;;;7.00;99.90;;;;;;5094841;27;20468;-45
2022/12/23 12:33:24;;;;;;;47.33;17.10;;;7.10;99.90;;;;;;5095372;27;20044;-46
2022/12/23 12:36:14;;;;;;;39.17;15.80;;;7.10;99.90;;;;;;5094450;27;20114;-44
2022/12/23 12:38:42;;;;;;;44.13;16.13;;;6.90;99.90;;;;;;5096108;27;20485;-45
2022/12/23 12:41:17;;;;;;;49.95;17.33;;;7.40;99.90;;;;;;5095325;27;20040;-48
2022/12/23 12:43:54;;;;;;;45.92;15.93;;;6.90;99.90;;;;;;5096859;27;20099;-44
2022/12/23 12:46:29;;;;;;;38.28;14.13;;;7.10;99.90;;;;;;5097295;27;20063;-45
2022/12/23 12:49:04;;;;;;;38.30;15.23;;;7.30;99.90;;;;;;5096001;27;20071;-45
2022/12/23 12:52:00;;;;;;;34.78;14.23;;;7.10;99.90;;;;;;5095476;27;20084;-44
2022/12/23 12:54:38;;;;;;;31.65;14.70;;;7.00;99.90;;;;;;5094404;27;20478;-45
2022/12/23 12:57:05;;;;;;;38.40;14.60;;;6.90;99.90;;;;;;5093804;28;20751;-48
2022/12/23 12:59:37;;;;;;;39.03;14.27;;;8.50;99.90;;;;;;5094498;27;20138;-44
2022/12/23 13:02:29;;;;;;;34.45;14.85;;;7.00;99.90;;;;;;5094646;27;20051;-45
2022/12/23 13:05:06;;;;;;;33.40;14.57;;;9.10;99.90;;;;;;5077404;27;20039;-44
2022/12/23 13:07:49;;;;;;;33.75;13.82;;;7.10;99.90;;;;;;5095206;27;20370;-46
2022/12/23 13:10:32;;;;;;;33.40;15.05;;;7.00;99.90;;;;;;5094297;27;20047;-45
2022/12/23 13:13:05;;;;;;;33.38;14.23;;;7.20;99.90;;;;;;5126334;27;20073;-45
2022/12/23 13:15:42;;;;;;;34.67;14.60;;;7.70;99.90;;;;;;5094642;27;20117;-45
2022/12/23 13:18:32;;;;;;;37.47;15.52;;;7.10;99.90;;;;;;5093717;28;20044;-44
2022/12/23 13:21:17;;;;;;;32.28;13.85;;;7.20;99.90;;;;;;5094512;27;20461;-45